createdAt,value
2018-12-08T00:00:56.724Z,64.40
2018-12-08T00:11:02.190Z,65.90
2018-12-08T00:21:06.690Z,64.10
2018-12-08T00:31:21.856Z,64.10
2018-12-08T00:41:25.969Z,64.20
2018-12-08T00:51:30.078Z,64.50
2018-12-08T01:01:34.889Z,64.90
2018-12-08T01:11:39.075Z,64.60
2018-12-08T01:21:43.158Z,64.30
2018-12-08T01:31:47.365Z,64.30
2018-12-08T01:41:51.479Z,64.10
2018-12-08T01:51:55.807Z,64.70
2018-12-08T02:01:59.911Z,64.70
2018-12-08T02:12:04.062Z,65.00
2018-12-08T02:22:08.364Z,64.90
2018-12-08T02:32:12.481Z,65.00
2018-12-08T02:42:16.677Z,64.40
2018-12-08T02:52:20.722Z,64.80
2018-12-08T03:02:24.867Z,64.80
2018-12-08T03:12:29.205Z,64.40
2018-12-08T03:22:33.553Z,64.80
2018-12-08T03:32:37.677Z,64.60
2018-12-08T03:42:41.799Z,64.60
2018-12-08T03:52:45.893Z,64.40
2018-12-08T04:02:49.947Z,64.60
2018-12-08T04:12:54.040Z,64.10
2018-12-08T04:22:58.161Z,64.20
2018-12-08T04:33:02.243Z,64.30
2018-12-08T04:43:06.785Z,64.50
2018-12-08T04:53:10.991Z,64.60
2018-12-08T05:03:15.089Z,64.40
2018-12-08T05:13:19.349Z,64.20
2018-12-08T05:23:23.549Z,63.90
2018-12-08T05:33:27.620Z,64.10
2018-12-08T05:43:31.646Z,64.20
2018-12-08T05:53:35.700Z,63.70
2018-12-08T06:03:39.924Z,63.60
2018-12-08T06:13:44.060Z,63.90
2018-12-08T06:23:48.216Z,63.70
2018-12-08T06:33:52.352Z,63.60
2018-12-08T06:43:56.612Z,64.20
2018-12-08T06:54:00.744Z,64.00
2018-12-08T07:04:04.848Z,63.90
2018-12-08T07:14:08.987Z,63.90
2018-12-08T07:24:13.101Z,63.90
2018-12-08T07:34:17.379Z,63.90
2018-12-08T07:44:21.566Z,64.10
2018-12-08T07:54:26.001Z,63.90
2018-12-08T08:04:30.103Z,64.10
2018-12-08T08:14:34.249Z,63.50
2018-12-08T08:24:38.620Z,63.90
2018-12-08T08:34:42.856Z,64.00
2018-12-08T08:44:46.975Z,64.40
2018-12-08T08:54:51.090Z,64.30
2018-12-08T09:04:55.361Z,63.90
2018-12-08T09:14:59.513Z,64.10
2018-12-08T09:25:03.995Z,63.50
2018-12-08T09:35:08.826Z,63.90
2018-12-08T09:45:13.111Z,63.70
2018-12-08T09:55:17.573Z,63.50
2018-12-08T10:05:21.691Z,64.10
2018-12-08T10:15:26.011Z,63.90
2018-12-08T10:25:30.149Z,63.20
2018-12-08T10:35:35.148Z,63.30
2018-12-08T10:45:39.271Z,63.50
2018-12-08T10:55:43.401Z,63.50
2018-12-08T11:05:47.570Z,63.30
2018-12-08T11:15:51.742Z,64.20
2018-12-08T11:25:55.969Z,65.50
2018-12-08T11:36:00.108Z,67.30
2018-12-08T11:46:04.152Z,68.10
2018-12-08T11:56:08.364Z,68.00
2018-12-08T12:06:12.603Z,68.80
2018-12-08T12:16:18.596Z,69.20
2018-12-08T12:26:22.865Z,68.80
2018-12-08T12:36:27.267Z,69.80
2018-12-08T12:46:31.323Z,70.40
2018-12-08T12:56:35.611Z,71.00
2018-12-08T13:06:39.695Z,71.00
2018-12-08T13:16:43.997Z,71.20
2018-12-08T13:26:48.237Z,71.70
2018-12-08T13:36:53.120Z,71.60
2018-12-08T13:46:57.247Z,71.20
2018-12-08T14:03:06.657Z,73.90
2018-12-08T14:21:19.613Z,56.40
2018-12-08T14:31:23.927Z,71.10
2018-12-08T14:41:28.177Z,74.90
2018-12-08T14:51:32.426Z,78.10
2018-12-08T15:01:36.537Z,80.00
2018-12-08T15:11:40.817Z,81.30
2018-12-08T15:21:44.949Z,82.20
2018-12-08T15:31:49.123Z,83.10
2018-12-08T15:41:53.205Z,83.60
2018-12-08T15:51:58.187Z,83.90
2018-12-08T16:02:02.445Z,84.60
2018-12-08T16:12:06.639Z,85.50
2018-12-08T16:22:10.777Z,86.60
2018-12-08T16:32:14.893Z,86.80
2018-12-08T16:42:19.048Z,87.00
2018-12-08T16:52:23.189Z,85.80
2018-12-08T17:02:27.393Z,84.50
2018-12-08T17:12:31.598Z,84.20
2018-12-08T17:22:35.703Z,83.60
2018-12-08T17:32:39.848Z,83.70
2018-12-08T17:42:44.098Z,85.50
2018-12-08T17:52:48.237Z,86.90
2018-12-08T18:02:52.635Z,88.10
2018-12-08T18:12:56.943Z,88.10
2018-12-08T18:23:01.127Z,88.80
2018-12-08T18:33:05.481Z,88.90
2018-12-08T18:43:09.654Z,89.50
2018-12-08T18:53:13.759Z,89.10
2018-12-08T19:03:17.962Z,88.20
2018-12-08T19:13:22.210Z,87.80
2018-12-08T19:23:27.858Z,87.00
2018-12-08T19:33:31.990Z,86.80
2018-12-08T19:43:36.080Z,86.50
2018-12-08T19:53:40.476Z,86.50
2018-12-08T20:03:44.604Z,86.40
2018-12-08T20:13:49.228Z,86.10
2018-12-08T20:23:53.492Z,86.10
2018-12-08T20:33:57.774Z,86.00
2018-12-08T20:44:01.873Z,86.80
2018-12-08T20:54:06.030Z,87.70
2018-12-08T21:04:10.141Z,88.00
2018-12-08T21:14:14.214Z,88.60
2018-12-08T21:24:18.373Z,89.00
2018-12-08T21:34:23.629Z,88.10
2018-12-08T21:44:27.757Z,87.10
2018-12-08T21:54:31.908Z,86.50
2018-12-08T22:04:36.010Z,86.30
2018-12-08T22:14:59.106Z,86.20
2018-12-08T22:25:03.376Z,86.60
2018-12-08T22:35:07.731Z,86.90
2018-12-08T22:45:12.162Z,87.50
2018-12-08T22:55:16.472Z,87.80
2018-12-08T23:05:20.769Z,87.60
2018-12-08T23:15:25.962Z,88.30
2018-12-08T23:25:30.093Z,88.60
2018-12-08T23:35:34.257Z,88.90
2018-12-08T23:45:38.431Z,88.80
2018-12-08T23:55:42.577Z,88.90
